sensor_id;sensor_type;location;lat;lon;timestamp;P1;durP1;ratioP1;P2;durP2;ratioP2
22531;SDS011;11432;46.924;7.114;2022-07-24T00:01:32;9.98;;;6.63;;
22531;SDS011;11432;46.924;7.114;2022-07-24T00:03:58;11.95;;;6.10;;
22531;SDS011;11432;46.924;7.114;2022-07-24T00:06:24;8.70;;;6.50;;
22531;SDS011;11432;46.924;7.114;2022-07-24T00:08:50;8.13;;;5.85;;
22531;SDS011;11432;46.924;7.114;2022-07-24T00:11:15;12.48;;;6.35;;
22531;SDS011;11432;46.924;7.114;2022-07-24T00:13:41;9.13;;;6.72;;
22531;SDS011;11432;46.924;7.114;2022-07-24T00:16:07;8.38;;;6.43;;
22531;SDS011;11432;46.924;7.114;2022-07-24T00:18:33;9.25;;;6.50;;
22531;SDS011;11432;46.924;7.114;2022-07-24T00:20:59;7.00;;;6.15;;
22531;SDS011;11432;46.924;7.114;2022-07-24T00:23:25;9.82;;;6.10;;
22531;SDS011;11432;46.924;7.114;2022-07-24T00:25:51;10.70;;;6.55;;
22531;SDS011;11432;46.924;7.114;2022-07-24T00:28:17;8.45;;;6.20;;
22531;SDS011;11432;46.924;7.114;2022-07-24T00:30:42;12.15;;;6.20;;
22531;SDS011;11432;46.924;7.114;2022-07-24T00:33:08;21.77;;;7.03;;
22531;SDS011;11432;46.924;7.114;2022-07-24T00:35:34;13.85;;;6.13;;
22531;SDS011;11432;46.924;7.114;2022-07-24T00:37:59;8.23;;;6.35;;
22531;SDS011;11432;46.924;7.114;2022-07-24T00:40:25;10.38;;;6.40;;
22531;SDS011;11432;46.924;7.114;2022-07-24T00:42:52;10.32;;;6.68;;
22531;SDS011;11432;46.924;7.114;2022-07-24T00:45:18;10.15;;;6.40;;
22531;SDS011;11432;46.924;7.114;2022-07-24T00:47:44;9.40;;;6.90;;
22531;SDS011;11432;46.924;7.114;2022-07-24T00:50:10;8.75;;;6.95;;
22531;SDS011;11432;46.924;7.114;2022-07-24T00:52:36;10.80;;;7.22;;
22531;SDS011;11432;46.924;7.114;2022-07-24T00:55:03;10.45;;;6.60;;
22531;SDS011;11432;46.924;7.114;2022-07-24T00:57:29;10.15;;;6.50;;
22531;SDS011;11432;46.924;7.114;2022-07-24T00:59:55;8.57;;;6.57;;
22531;SDS011;11432;46.924;7.114;2022-07-24T01:02:21;8.40;;;6.72;;
22531;SDS011;11432;46.924;7.114;2022-07-24T01:04:48;9.65;;;6.78;;
22531;SDS011;11432;46.924;7.114;2022-07-24T01:07:14;9.23;;;6.35;;
22531;SDS011;11432;46.924;7.114;2022-07-24T01:09:40;11.75;;;7.10;;
22531;SDS011;11432;46.924;7.114;2022-07-24T01:12:06;10.57;;;6.45;;
22531;SDS011;11432;46.924;7.114;2022-07-24T01:14:32;12.13;;;7.18;;
22531;SDS011;11432;46.924;7.114;2022-07-24T01:16:58;10.02;;;6.75;;
22531;SDS011;11432;46.924;7.114;2022-07-24T01:19:24;10.32;;;7.00;;
22531;SDS011;11432;46.924;7.114;2022-07-24T01:21:51;9.52;;;6.65;;
22531;SDS011;11432;46.924;7.114;2022-07-24T01:24:18;7.97;;;6.30;;
22531;SDS011;11432;46.924;7.114;2022-07-24T01:26:44;11.48;;;6.75;;
22531;SDS011;11432;46.924;7.114;2022-07-24T01:29:10;9.25;;;7.07;;
22531;SDS011;11432;46.924;7.114;2022-07-24T01:31:36;13.57;;;6.38;;
22531;SDS011;11432;46.924;7.114;2022-07-24T01:34:02;8.57;;;6.07;;
22531;SDS011;11432;46.924;7.114;2022-07-24T01:36:29;9.10;;;6.45;;
22531;SDS011;11432;46.924;7.114;2022-07-24T01:38:55;12.32;;;7.15;;
22531;SDS011;11432;46.924;7.114;2022-07-24T01:41:26;11.13;;;6.72;;
22531;SDS011;11432;46.924;7.114;2022-07-24T01:43:52;8.60;;;6.63;;
22531;SDS011;11432;46.924;7.114;2022-07-24T01:46:17;8.13;;;6.72;;
22531;SDS011;11432;46.924;7.114;2022-07-24T01:48:43;10.43;;;7.22;;
22531;SDS011;11432;46.924;7.114;2022-07-24T01:51:09;9.82;;;7.88;;
22531;SDS011;11432;46.924;7.114;2022-07-24T01:53:35;12.57;;;6.70;;
22531;SDS011;11432;46.924;7.114;2022-07-24T01:56:01;9.85;;;7.18;;
22531;SDS011;11432;46.924;7.114;2022-07-24T01:58:27;7.88;;;6.60;;
22531;SDS011;11432;46.924;7.114;2022-07-24T02:00:53;9.88;;;7.65;;
22531;SDS011;11432;46.924;7.114;2022-07-24T02:03:19;11.93;;;7.85;;
22531;SDS011;11432;46.924;7.114;2022-07-24T02:05:46;9.45;;;6.90;;
22531;SDS011;11432;46.924;7.114;2022-07-24T02:08:12;9.98;;;7.32;;
22531;SDS011;11432;46.924;7.114;2022-07-24T02:10:37;8.82;;;6.70;;
22531;SDS011;11432;46.924;7.114;2022-07-24T02:13:04;10.93;;;7.30;;
22531;SDS011;11432;46.924;7.114;2022-07-24T02:15:30;10.23;;;7.43;;
22531;SDS011;11432;46.924;7.114;2022-07-24T02:17:57;8.35;;;6.70;;
22531;SDS011;11432;46.924;7.114;2022-07-24T02:20:23;8.55;;;7.15;;
22531;SDS011;11432;46.924;7.114;2022-07-24T02:22:49;12.02;;;7.13;;
22531;SDS011;11432;46.924;7.114;2022-07-24T02:25:15;13.70;;;7.82;;
22531;SDS011;11432;46.924;7.114;2022-07-24T02:27:41;9.02;;;7.43;;
22531;SDS011;11432;46.924;7.114;2022-07-24T02:30:08;9.30;;;6.60;;
22531;SDS011;11432;46.924;7.114;2022-07-24T02:35:02;10.40;;;7.40;;
22531;SDS011;11432;46.924;7.114;2022-07-24T02:37:28;11.13;;;6.95;;
22531;SDS011;11432;46.924;7.114;2022-07-24T02:39:53;9.05;;;6.70;;
22531;SDS011;11432;46.924;7.114;2022-07-24T02:42:19;8.48;;;7.40;;
22531;SDS011;11432;46.924;7.114;2022-07-24T02:44:45;8.50;;;7.22;;
22531;SDS011;11432;46.924;7.114;2022-07-24T02:47:11;10.30;;;7.53;;
22531;SDS011;11432;46.924;7.114;2022-07-24T02:49:36;10.60;;;7.68;;
22531;SDS011;11432;46.924;7.114;2022-07-24T02:52:02;11.57;;;7.43;;
22531;SDS011;11432;46.924;7.114;2022-07-24T02:54:28;11.18;;;7.07;;
22531;SDS011;11432;46.924;7.114;2022-07-24T02:56:54;8.57;;;7.10;;
22531;SDS011;11432;46.924;7.114;2022-07-24T02:59:19;10.82;;;7.57;;
22531;SDS011;11432;46.924;7.114;2022-07-24T03:01:45;10.40;;;7.13;;
22531;SDS011;11432;46.924;7.114;2022-07-24T03:04:11;9.98;;;7.35;;
22531;SDS011;11432;46.924;7.114;2022-07-24T03:06:36;11.90;;;7.78;;
22531;SDS011;11432;46.924;7.114;2022-07-24T03:09:03;13.85;;;7.22;;
22531;SDS011;11432;46.924;7.114;2022-07-24T03:11:29;9.32;;;7.07;;
22531;SDS011;11432;46.924;7.114;2022-07-24T03:13:54;10.85;;;7.60;;
22531;SDS011;11432;46.924;7.114;2022-07-24T03:16:20;9.15;;;7.45;;
22531;SDS011;11432;46.924;7.114;2022-07-24T03:18:46;11.00;;;7.18;;
22531;SDS011;11432;46.924;7.114;2022-07-24T03:21:13;12.70;;;7.57;;
22531;SDS011;11432;46.924;7.114;2022-07-24T03:23:40;10.98;;;7.43;;
22531;SDS011;11432;46.924;7.114;2022-07-24T03:26:05;8.75;;;7.53;;
22531;SDS011;11432;46.924;7.114;2022-07-24T03:28:32;10.00;;;7.35;;
22531;SDS011;11432;46.924;7.114;2022-07-24T03:30:57;11.50;;;8.02;;
22531;SDS011;11432;46.924;7.114;2022-07-24T03:33:23;9.98;;;7.55;;
22531;SDS011;11432;46.924;7.114;2022-07-24T03:35:49;11.93;;;7.40;;
22531;SDS011;11432;46.924;7.114;2022-07-24T03:38:14;9.20;;;7.80;;
22531;SDS011;11432;46.924;7.114;2022-07-24T03:40:40;9.15;;;7.70;;
22531;SDS011;11432;46.924;7.114;2022-07-24T03:43:06;10.75;;;7.55;;
22531;SDS011;11432;46.924;7.114;2022-07-24T03:45:31;10.20;;;7.38;;
22531;SDS011;11432;46.924;7.114;2022-07-24T03:47:57;9.63;;;7.63;;
22531;SDS011;11432;46.924;7.114;2022-07-24T03:50:23;10.02;;;7.50;;
22531;SDS011;11432;46.924;7.114;2022-07-24T03:52:49;10.80;;;8.25;;
22531;SDS011;11432;46.924;7.114;2022-07-24T03:55:15;9.20;;;7.40;;
22531;SDS011;11432;46.924;7.114;2022-07-24T03:57:41;10.95;;;7.43;;
22531;SDS011;11432;46.924;7.114;2022-07-24T04:00:06;8.80;;;7.35;;
22531;SDS011;11432;46.924;7.114;2022-07-24T04:02:33;11.43;;;7.60;;
22531;SDS011;11432;46.924;7.114;2022-07-24T04:04:59;10.60;;;7.82;;
22531;SDS011;11432;46.924;7.114;2022-07-24T04:07:25;11.05;;;8.07;;
22531;SDS011;11432;46.924;7.114;2022-07-24T04:09:50;16.35;;;8.15;;
22531;SDS011;11432;46.924;7.114;2022-07-24T04:12:16;13.18;;;7.88;;
22531;SDS011;11432;46.924;7.114;2022-07-24T04:14:42;11.98;;;7.85;;
22531;SDS011;11432;46.924;7.114;2022-07-24T04:17:07;15.00;;;8.30;;
22531;SDS011;11432;46.924;7.114;2022-07-24T04:19:33;13.57;;;8.55;;
22531;SDS011;11432;46.924;7.114;2022-07-24T04:21:59;8.32;;;7.45;;
22531;SDS011;11432;46.924;7.114;2022-07-24T04:24:25;10.13;;;8.05;;
22531;SDS011;11432;46.924;7.114;2022-07-24T04:26:50;10.25;;;7.70;;
22531;SDS011;11432;46.924;7.114;2022-07-24T04:29:16;10.70;;;8.38;;
22531;SDS011;11432;46.924;7.114;2022-07-24T04:31:42;11.18;;;7.65;;
22531;SDS011;11432;46.924;7.114;2022-07-24T04:34:07;12.77;;;8.35;;
22531;SDS011;11432;46.924;7.114;2022-07-24T04:36:33;8.68;;;7.32;;
22531;SDS011;11432;46.924;7.114;2022-07-24T04:38:59;13.05;;;8.13;;
22531;SDS011;11432;46.924;7.114;2022-07-24T04:41:24;11.20;;;7.95;;
22531;SDS011;11432;46.924;7.114;2022-07-24T04:43:50;10.43;;;8.20;;
22531;SDS011;11432;46.924;7.114;2022-07-24T04:46:16;11.70;;;9.50;;
22531;SDS011;11432;46.924;7.114;2022-07-24T04:48:42;12.05;;;9.05;;
22531;SDS011;11432;46.924;7.114;2022-07-24T04:51:08;9.43;;;8.25;;
22531;SDS011;11432;46.924;7.114;2022-07-24T04:53:33;11.70;;;9.55;;
22531;SDS011;11432;46.924;7.114;2022-07-24T04:55:59;12.93;;;9.70;;
22531;SDS011;11432;46.924;7.114;2022-07-24T04:58:25;14.07;;;8.82;;
22531;SDS011;11432;46.924;7.114;2022-07-24T05:00:51;13.05;;;9.75;;
22531;SDS011;11432;46.924;7.114;2022-07-24T05:03:17;12.57;;;9.40;;
22531;SDS011;11432;46.924;7.114;2022-07-24T05:05:43;10.82;;;9.40;;
22531;SDS011;11432;46.924;7.114;2022-07-24T05:08:09;11.80;;;9.40;;
22531;SDS011;11432;46.924;7.114;2022-07-24T05:10:34;12.80;;;9.85;;
22531;SDS011;11432;46.924;7.114;2022-07-24T05:13:00;15.32;;;9.90;;
22531;SDS011;11432;46.924;7.114;2022-07-24T05:15:26;17.80;;;9.98;;
22531;SDS011;11432;46.924;7.114;2022-07-24T05:17:52;11.93;;;9.82;;
22531;SDS011;11432;46.924;7.114;2022-07-24T05:20:17;15.55;;;9.55;;
22531;SDS011;11432;46.924;7.114;2022-07-24T05:22:43;15.40;;;9.52;;
22531;SDS011;11432;46.924;7.114;2022-07-24T05:25:09;13.30;;;10.02;;
22531;SDS011;11432;46.924;7.114;2022-07-24T05:27:34;13.15;;;9.43;;
22531;SDS011;11432;46.924;7.114;2022-07-24T05:30:00;10.48;;;8.63;;
22531;SDS011;11432;46.924;7.114;2022-07-24T05:32:26;15.23;;;9.43;;
22531;SDS011;11432;46.924;7.114;2022-07-24T05:34:51;13.00;;;8.82;;
22531;SDS011;11432;46.924;7.114;2022-07-24T05:37:17;11.98;;;9.13;;
22531;SDS011;11432;46.924;7.114;2022-07-24T05:39:43;13.40;;;8.80;;
22531;SDS011;11432;46.924;7.114;2022-07-24T05:42:08;10.90;;;9.00;;
22531;SDS011;11432;46.924;7.114;2022-07-24T05:44:34;14.57;;;9.20;;
22531;SDS011;11432;46.924;7.114;2022-07-24T05:47:00;13.48;;;9.55;;
22531;SDS011;11432;46.924;7.114;2022-07-24T05:49:25;11.88;;;9.32;;
22531;SDS011;11432;46.924;7.114;2022-07-24T05:51:51;11.98;;;9.32;;
22531;SDS011;11432;46.924;7.114;2022-07-24T05:54:17;12.85;;;9.68;;
22531;SDS011;11432;46.924;7.114;2022-07-24T05:56:42;14.65;;;8.63;;
22531;SDS011;11432;46.924;7.114;2022-07-24T05:59:08;12.88;;;9.40;;
22531;SDS011;11432;46.924;7.114;2022-07-24T06:01:33;13.35;;;9.65;;
22531;SDS011;11432;46.924;7.114;2022-07-24T06:03:59;13.10;;;10.05;;
22531;SDS011;11432;46.924;7.114;2022-07-24T06:06:25;16.00;;;9.77;;
22531;SDS011;11432;46.924;7.114;2022-07-24T06:08:50;18.00;;;10.38;;
22531;SDS011;11432;46.924;7.114;2022-07-24T06:11:16;13.57;;;10.48;;
22531;SDS011;11432;46.924;7.114;2022-07-24T06:13:42;19.25;;;11.05;;
22531;SDS011;11432;46.924;7.114;2022-07-24T06:16:08;19.88;;;10.07;;
22531;SDS011;11432;46.924;7.114;2022-07-24T06:18:34;14.15;;;10.55;;
22531;SDS011;11432;46.924;7.114;2022-07-24T06:20:59;12.32;;;9.98;;
22531;SDS011;11432;46.924;7.114;2022-07-24T06:23:25;16.15;;;9.23;;
22531;SDS011;11432;46.924;7.114;2022-07-24T06:25:51;13.07;;;9.93;;
22531;SDS011;11432;46.924;7.114;2022-07-24T06:28:16;15.52;;;9.77;;
22531;SDS011;11432;46.924;7.114;2022-07-24T06:30:42;14.93;;;8.95;;
22531;SDS011;11432;46.924;7.114;2022-07-24T06:33:08;13.38;;;8.77;;
22531;SDS011;11432;46.924;7.114;2022-07-24T06:35:33;13.27;;;9.50;;
22531;SDS011;11432;46.924;7.114;2022-07-24T06:37:59;12.55;;;9.27;;
22531;SDS011;11432;46.924;7.114;2022-07-24T06:40:25;14.90;;;10.10;;
22531;SDS011;11432;46.924;7.114;2022-07-24T06:42:51;11.90;;;9.10;;
22531;SDS011;11432;46.924;7.114;2022-07-24T06:45:17;13.88;;;10.48;;
22531;SDS011;11432;46.924;7.114;2022-07-24T06:47:43;12.65;;;9.27;;
22531;SDS011;11432;46.924;7.114;2022-07-24T06:50:09;11.02;;;8.90;;
22531;SDS011;11432;46.924;7.114;2022-07-24T06:52:36;12.10;;;9.65;;
22531;SDS011;11432;46.924;7.114;2022-07-24T06:55:02;15.32;;;9.88;;
22531;SDS011;11432;46.924;7.114;2022-07-24T06:57:28;12.60;;;9.38;;
22531;SDS011;11432;46.924;7.114;2022-07-24T06:59:54;12.90;;;9.00;;
22531;SDS011;11432;46.924;7.114;2022-07-24T07:02:20;12.27;;;9.00;;
22531;SDS011;11432;46.924;7.114;2022-07-24T07:04:46;14.18;;;9.38;;
22531;SDS011;11432;46.924;7.114;2022-07-24T07:07:12;10.85;;;8.68;;
22531;SDS011;11432;46.924;7.114;2022-07-24T07:09:39;12.55;;;8.93;;
22531;SDS011;11432;46.924;7.114;2022-07-24T07:12:05;13.45;;;9.77;;
22531;SDS011;11432;46.924;7.114;2022-07-24T07:14:30;10.75;;;8.55;;
22531;SDS011;11432;46.924;7.114;2022-07-24T07:16:56;12.77;;;8.55;;
22531;SDS011;11432;46.924;7.114;2022-07-24T07:19:22;11.85;;;9.55;;
22531;SDS011;11432;46.924;7.114;2022-07-24T07:21:47;11.77;;;9.35;;
22531;SDS011;11432;46.924;7.114;2022-07-24T07:24:13;15.13;;;9.23;;
22531;SDS011;11432;46.924;7.114;2022-07-24T07:26:39;12.93;;;8.68;;
22531;SDS011;11432;46.924;7.114;2022-07-24T07:29:04;11.85;;;9.45;;
22531;SDS011;11432;46.924;7.114;2022-07-24T07:31:30;11.60;;;9.80;;
22531;SDS011;11432;46.924;7.114;2022-07-24T07:33:56;14.93;;;9.73;;
22531;SDS011;11432;46.924;7.114;2022-07-24T07:36:22;12.27;;;9.02;;
22531;SDS011;11432;46.924;7.114;2022-07-24T07:38:48;12.77;;;9.25;;
22531;SDS011;11432;46.924;7.114;2022-07-24T07:41:14;11.13;;;8.55;;
22531;SDS011;11432;46.924;7.114;2022-07-24T07:43:41;11.60;;;8.90;;
22531;SDS011;11432;46.924;7.114;2022-07-24T07:46:07;12.40;;;9.10;;
22531;SDS011;11432;46.924;7.114;2022-07-24T07:48:32;10.52;;;8.07;;
22531;SDS011;11432;46.924;7.114;2022-07-24T07:50:58;12.98;;;9.27;;
22531;SDS011;11432;46.924;7.114;2022-07-24T07:53:24;11.07;;;8.85;;
22531;SDS011;11432;46.924;7.114;2022-07-24T07:55:50;12.02;;;8.77;;
22531;SDS011;11432;46.924;7.114;2022-07-24T07:58:18;11.25;;;9.30;;
22531;SDS011;11432;46.924;7.114;2022-07-24T08:00:43;11.75;;;8.57;;
22531;SDS011;11432;46.924;7.114;2022-07-24T08:03:09;10.63;;;8.45;;
22531;SDS011;11432;46.924;7.114;2022-07-24T08:05:35;12.52;;;7.97;;
22531;SDS011;11432;46.924;7.114;2022-07-24T08:08:01;13.52;;;8.40;;
22531;SDS011;11432;46.924;7.114;2022-07-24T08:10:26;11.23;;;8.63;;
22531;SDS011;11432;46.924;7.114;2022-07-24T08:12:52;11.07;;;8.52;;
22531;SDS011;11432;46.924;7.114;2022-07-24T08:15:18;14.27;;;9.38;;
22531;SDS011;11432;46.924;7.114;2022-07-24T08:17:44;12.15;;;8.18;;
22531;SDS011;11432;46.924;7.114;2022-07-24T08:20:10;11.73;;;8.70;;
22531;SDS011;11432;46.924;7.114;2022-07-24T08:22:36;10.38;;;8.15;;
22531;SDS011;11432;46.924;7.114;2022-07-24T08:25:02;12.68;;;9.00;;
22531;SDS011;11432;46.924;7.114;2022-07-24T08:27:28;10.82;;;8.20;;
22531;SDS011;11432;46.924;7.114;2022-07-24T08:29:53;9.55;;;7.68;;
22531;SDS011;11432;46.924;7.114;2022-07-24T08:32:19;11.95;;;8.55;;
22531;SDS011;11432;46.924;7.114;2022-07-24T08:34:45;11.40;;;7.65;;
22531;SDS011;11432;46.924;7.114;2022-07-24T08:37:11;10.38;;;7.93;;
22531;SDS011;11432;46.924;7.114;2022-07-24T08:39:37;11.73;;;8.15;;
22531;SDS011;11432;46.924;7.114;2022-07-24T08:42:02;10.35;;;7.13;;
22531;SDS011;11432;46.924;7.114;2022-07-24T08:44:28;11.70;;;7.88;;
22531;SDS011;11432;46.924;7.114;2022-07-24T08:46:54;9.65;;;8.10;;
22531;SDS011;11432;46.924;7.114;2022-07-24T08:49:24;9.15;;;7.65;;
22531;SDS011;11432;46.924;7.114;2022-07-24T08:51:54;11.18;;;7.93;;
22531;SDS011;11432;46.924;7.114;2022-07-24T08:54:23;12.35;;;8.07;;
22531;SDS011;11432;46.924;7.114;2022-07-24T08:56:49;9.93;;;7.70;;
22531;SDS011;11432;46.924;7.114;2022-07-24T08:59:18;10.00;;;7.60;;
22531;SDS011;11432;46.924;7.114;2022-07-24T09:01:44;10.40;;;8.20;;
22531;SDS011;11432;46.924;7.114;2022-07-24T09:06:57;8.45;;;7.05;;
22531;SDS011;11432;46.924;7.114;2022-07-24T09:09:23;10.98;;;7.07;;
22531;SDS011;11432;46.924;7.114;2022-07-24T09:11:49;9.10;;;7.50;;
22531;SDS011;11432;46.924;7.114;2022-07-24T09:14:16;9.38;;;7.10;;
22531;SDS011;11432;46.924;7.114;2022-07-24T09:17:10;9.65;;;7.55;;
22531;SDS011;11432;46.924;7.114;2022-07-24T09:27:33;9.50;;;7.35;;
22531;SDS011;11432;46.924;7.114;2022-07-24T09:30:00;10.13;;;7.97;;
22531;SDS011;11432;46.924;7.114;2022-07-24T09:32:26;9.57;;;7.38;;
22531;SDS011;11432;46.924;7.114;2022-07-24T09:34:52;10.50;;;7.75;;
22531;SDS011;11432;46.924;7.114;2022-07-24T09:37:19;9.82;;;7.82;;
22531;SDS011;11432;46.924;7.114;2022-07-24T09:39:45;9.18;;;7.78;;
22531;SDS011;11432;46.924;7.114;2022-07-24T09:42:11;11.55;;;7.47;;
22531;SDS011;11432;46.924;7.114;2022-07-24T09:44:38;11.15;;;7.72;;
22531;SDS011;11432;46.924;7.114;2022-07-24T09:47:05;9.65;;;7.78;;
22531;SDS011;11432;46.924;7.114;2022-07-24T09:49:35;10.32;;;7.45;;
22531;SDS011;11432;46.924;7.114;2022-07-24T09:54:31;9.95;;;7.63;;
22531;SDS011;11432;46.924;7.114;2022-07-24T09:59:55;8.65;;;7.28;;
22531;SDS011;11432;46.924;7.114;2022-07-24T10:02:23;12.13;;;7.80;;
22531;SDS011;11432;46.924;7.114;2022-07-24T10:04:54;9.85;;;7.22;;
22531;SDS011;11432;46.924;7.114;2022-07-24T10:07:22;10.52;;;7.40;;
22531;SDS011;11432;46.924;7.114;2022-07-24T10:09:49;13.25;;;8.18;;
22531;SDS011;11432;46.924;7.114;2022-07-24T10:12:17;9.10;;;7.20;;
22531;SDS011;11432;46.924;7.114;2022-07-24T10:14:44;10.45;;;6.78;;
22531;SDS011;11432;46.924;7.114;2022-07-24T10:17:11;9.32;;;7.03;;
22531;SDS011;11432;46.924;7.114;2022-07-24T10:19:39;9.05;;;7.07;;
22531;SDS011;11432;46.924;7.114;2022-07-24T10:22:14;13.25;;;8.23;;
22531;SDS011;11432;46.924;7.114;2022-07-24T10:27:31;10.13;;;7.05;;
22531;SDS011;11432;46.924;7.114;2022-07-24T10:30:08;10.23;;;7.55;;
22531;SDS011;11432;46.924;7.114;2022-07-24T10:32:36;10.13;;;6.97;;
22531;SDS011;11432;46.924;7.114;2022-07-24T10:35:13;9.80;;;7.78;;
22531;SDS011;11432;46.924;7.114;2022-07-24T10:37:53;10.07;;;7.70;;
22531;SDS011;11432;46.924;7.114;2022-07-24T10:45:34;10.13;;;6.82;;
22531;SDS011;11432;46.924;7.114;2022-07-24T10:53:27;9.77;;;7.30;;
22531;SDS011;11432;46.924;7.114;2022-07-24T10:58:55;11.60;;;7.18;;
22531;SDS011;11432;46.924;7.114;2022-07-24T11:01:57;10.63;;;6.05;;
22531;SDS011;11432;46.924;7.114;2022-07-24T11:06:52;9.77;;;6.85;;
22531;SDS011;11432;46.924;7.114;2022-07-24T11:09:22;8.07;;;6.53;;
22531;SDS011;11432;46.924;7.114;2022-07-24T11:14:18;9.33;;;5.90;;
22531;SDS011;11432;46.924;7.114;2022-07-24T11:20:11;10.65;;;5.78;;
22531;SDS011;11432;46.924;7.114;2022-07-24T11:22:49;9.18;;;6.50;;
22531;SDS011;11432;46.924;7.114;2022-07-24T11:27:46;8.80;;;6.45;;
22531;SDS011;11432;46.924;7.114;2022-07-24T11:30:12;7.82;;;6.40;;
22531;SDS011;11432;46.924;7.114;2022-07-24T11:32:39;9.20;;;6.53;;
22531;SDS011;11432;46.924;7.114;2022-07-24T11:35:06;9.85;;;7.10;;
22531;SDS011;11432;46.924;7.114;2022-07-24T11:37:33;8.80;;;6.68;;
22531;SDS011;11432;46.924;7.114;2022-07-24T11:40:04;9.52;;;6.72;;
22531;SDS011;11432;46.924;7.114;2022-07-24T11:42:32;10.00;;;6.75;;
22531;SDS011;11432;46.924;7.114;2022-07-24T11:44:58;8.93;;;6.03;;
22531;SDS011;11432;46.924;7.114;2022-07-24T11:47:24;10.25;;;6.80;;
22531;SDS011;11432;46.924;7.114;2022-07-24T11:50:02;10.50;;;6.88;;
22531;SDS011;11432;46.924;7.114;2022-07-24T11:52:32;8.45;;;6.15;;
22531;SDS011;11432;46.924;7.114;2022-07-24T11:55:07;7.22;;;5.38;;
22531;SDS011;11432;46.924;7.114;2022-07-24T11:57:35;8.35;;;6.40;;
22531;SDS011;11432;46.924;7.114;2022-07-24T12:00:12;8.25;;;6.30;;
22531;SDS011;11432;46.924;7.114;2022-07-24T12:02:47;9.02;;;7.00;;
22531;SDS011;11432;46.924;7.114;2022-07-24T12:05:25;7.95;;;6.15;;
22531;SDS011;11432;46.924;7.114;2022-07-24T12:07:56;10.13;;;6.38;;
22531;SDS011;11432;46.924;7.114;2022-07-24T12:10:24;8.97;;;6.40;;
22531;SDS011;11432;46.924;7.114;2022-07-24T12:12:51;6.55;;;5.63;;
22531;SDS011;11432;46.924;7.114;2022-07-24T12:15:18;7.70;;;5.82;;
22531;SDS011;11432;46.924;7.114;2022-07-24T12:18:18;8.10;;;5.28;;
22531;SDS011;11432;46.924;7.114;2022-07-24T12:20:41;7.63;;;5.70;;
22531;SDS011;11432;46.924;7.114;2022-07-24T12:23:10;9.32;;;6.55;;
22531;SDS011;11432;46.924;7.114;2022-07-24T12:25:37;6.40;;;4.83;;
22531;SDS011;11432;46.924;7.114;2022-07-24T12:28:10;7.57;;;5.60;;
22531;SDS011;11432;46.924;7.114;2022-07-24T12:30:38;9.85;;;5.88;;
22531;SDS011;11432;46.924;7.114;2022-07-24T12:33:18;9.38;;;6.20;;
22531;SDS011;11432;46.924;7.114;2022-07-24T12:38:25;6.75;;;5.85;;
22531;SDS011;11432;46.924;7.114;2022-07-24T12:41:27;13.02;;;6.57;;
22531;SDS011;11432;46.924;7.114;2022-07-24T12:43:54;7.07;;;5.40;;
22531;SDS011;11432;46.924;7.114;2022-07-24T12:46:21;9.15;;;5.35;;
22531;SDS011;11432;46.924;7.114;2022-07-24T12:56:48;7.05;;;5.07;;
22531;SDS011;11432;46.924;7.114;2022-07-24T13:01:57;7.45;;;5.13;;
22531;SDS011;11432;46.924;7.114;2022-07-24T13:04:25;8.45;;;5.32;;
22531;SDS011;11432;46.924;7.114;2022-07-24T13:06:53;6.80;;;5.15;;
22531;SDS011;11432;46.924;7.114;2022-07-24T13:09:23;6.18;;;4.25;;
22531;SDS011;11432;46.924;7.114;2022-07-24T13:11:50;6.32;;;4.82;;
22531;SDS011;11432;46.924;7.114;2022-07-24T13:14:17;7.18;;;5.40;;
22531;SDS011;11432;46.924;7.114;2022-07-24T13:16:44;6.75;;;5.63;;
22531;SDS011;11432;46.924;7.114;2022-07-24T13:19:11;7.82;;;5.18;;
22531;SDS011;11432;46.924;7.114;2022-07-24T13:21:37;7.07;;;5.18;;
22531;SDS011;11432;46.924;7.114;2022-07-24T13:24:04;7.28;;;5.30;;
22531;SDS011;11432;46.924;7.114;2022-07-24T13:26:30;6.68;;;4.88;;
22531;SDS011;11432;46.924;7.114;2022-07-24T13:28:57;9.30;;;5.72;;
22531;SDS011;11432;46.924;7.114;2022-07-24T13:31:22;7.63;;;5.47;;
22531;SDS011;11432;46.924;7.114;2022-07-24T13:33:48;9.23;;;5.55;;
22531;SDS011;11432;46.924;7.114;2022-07-24T13:36:15;8.63;;;5.35;;
22531;SDS011;11432;46.924;7.114;2022-07-24T13:38:42;6.57;;;5.13;;
22531;SDS011;11432;46.924;7.114;2022-07-24T13:41:08;10.07;;;5.43;;
22531;SDS011;11432;46.924;7.114;2022-07-24T13:43:34;10.18;;;5.10;;
22531;SDS011;11432;46.924;7.114;2022-07-24T13:46:00;10.15;;;4.82;;
22531;SDS011;11432;46.924;7.114;2022-07-24T13:48:26;7.38;;;5.25;;
22531;SDS011;11432;46.924;7.114;2022-07-24T13:50:51;8.05;;;4.97;;
22531;SDS011;11432;46.924;7.114;2022-07-24T13:53:17;6.55;;;3.90;;
22531;SDS011;11432;46.924;7.114;2022-07-24T13:55:43;5.18;;;3.88;;
22531;SDS011;11432;46.924;7.114;2022-07-24T13:58:08;6.30;;;4.53;;
22531;SDS011;11432;46.924;7.114;2022-07-24T14:00:34;6.70;;;4.70;;
22531;SDS011;11432;46.924;7.114;2022-07-24T14:03:00;5.57;;;4.72;;
22531;SDS011;11432;46.924;7.114;2022-07-24T14:05:26;6.30;;;4.97;;
22531;SDS011;11432;46.924;7.114;2022-07-24T14:07:51;7.88;;;5.18;;
22531;SDS011;11432;46.924;7.114;2022-07-24T14:10:18;6.63;;;5.30;;
22531;SDS011;11432;46.924;7.114;2022-07-24T14:12:45;8.45;;;5.00;;
22531;SDS011;11432;46.924;7.114;2022-07-24T14:15:11;7.85;;;5.57;;
22531;SDS011;11432;46.924;7.114;2022-07-24T14:17:39;7.50;;;5.43;;
22531;SDS011;11432;46.924;7.114;2022-07-24T14:20:06;8.55;;;5.38;;
22531;SDS011;11432;46.924;7.114;2022-07-24T14:22:36;7.75;;;4.97;;
22531;SDS011;11432;46.924;7.114;2022-07-24T14:25:04;6.20;;;5.03;;
22531;SDS011;11432;46.924;7.114;2022-07-24T14:27:30;7.25;;;5.65;;
22531;SDS011;11432;46.924;7.114;2022-07-24T14:29:57;6.68;;;4.95;;
22531;SDS011;11432;46.924;7.114;2022-07-24T14:32:23;6.90;;;5.53;;
22531;SDS011;11432;46.924;7.114;2022-07-24T14:34:49;11.32;;;5.63;;
22531;SDS011;11432;46.924;7.114;2022-07-24T14:37:14;7.82;;;5.18;;
22531;SDS011;11432;46.924;7.114;2022-07-24T14:39:40;6.85;;;5.63;;
22531;SDS011;11432;46.924;7.114;2022-07-24T14:42:06;7.10;;;5.32;;
22531;SDS011;11432;46.924;7.114;2022-07-24T14:44:32;7.93;;;5.78;;
22531;SDS011;11432;46.924;7.114;2022-07-24T14:46:58;7.05;;;5.25;;
22531;SDS011;11432;46.924;7.114;2022-07-24T14:49:25;8.02;;;5.65;;
22531;SDS011;11432;46.924;7.114;2022-07-24T14:51:52;9.95;;;5.90;;
22531;SDS011;11432;46.924;7.114;2022-07-24T14:54:18;6.07;;;5.25;;
22531;SDS011;11432;46.924;7.114;2022-07-24T14:56:43;6.53;;;5.15;;
22531;SDS011;11432;46.924;7.114;2022-07-24T14:59:09;9.05;;;5.97;;
22531;SDS011;11432;46.924;7.114;2022-07-24T15:01:35;6.32;;;5.28;;
22531;SDS011;11432;46.924;7.114;2022-07-24T15:04:01;7.93;;;5.20;;
22531;SDS011;11432;46.924;7.114;2022-07-24T15:06:27;11.60;;;5.57;;
22531;SDS011;11432;46.924;7.114;2022-07-24T15:08:54;10.57;;;5.80;;
22531;SDS011;11432;46.924;7.114;2022-07-24T15:11:19;8.25;;;5.88;;
22531;SDS011;11432;46.924;7.114;2022-07-24T15:13:47;7.97;;;5.28;;
22531;SDS011;11432;46.924;7.114;2022-07-24T15:16:13;6.15;;;5.13;;
22531;SDS011;11432;46.924;7.114;2022-07-24T15:18:39;7.13;;;5.53;;
22531;SDS011;11432;46.924;7.114;2022-07-24T15:21:05;13.98;;;5.93;;
22531;SDS011;11432;46.924;7.114;2022-07-24T15:23:31;7.68;;;5.13;;
22531;SDS011;11432;46.924;7.114;2022-07-24T15:25:57;7.03;;;4.53;;
22531;SDS011;11432;46.924;7.114;2022-07-24T15:28:23;6.68;;;4.55;;
22531;SDS011;11432;46.924;7.114;2022-07-24T15:30:49;5.57;;;4.05;;
22531;SDS011;11432;46.924;7.114;2022-07-24T15:33:14;4.00;;;3.33;;
22531;SDS011;11432;46.924;7.114;2022-07-24T15:35:40;4.97;;;3.83;;
22531;SDS011;11432;46.924;7.114;2022-07-24T15:38:05;4.72;;;3.17;;